sensor_id;sensor_type;location;lat;lon;timestamp;pressure;altitude;pressure_sealevel;temperature;humidity
30302;BME280;17111;52.130;5.028;2023-02-17T00:02:14;101990.88;;;16.74;49.72
30302;BME280;17111;52.130;5.028;2023-02-17T00:04:41;101986.38;;;16.75;49.27
30302;BME280;17111;52.130;5.028;2023-02-17T00:07:08;101982.00;;;16.74;50.22
30302;BME280;17111;52.130;5.028;2023-02-17T00:09:35;101974.81;;;16.74;49.29
30302;BME280;17111;52.130;5.028;2023-02-17T00:12:02;101992.59;;;16.75;49.64
30302;BME280;17111;52.130;5.028;2023-02-17T00:14:29;101982.00;;;16.74;49.64
30302;BME280;17111;52.130;5.028;2023-02-17T00:16:56;101986.38;;;16.75;49.97
30302;BME280;17111;52.130;5.028;2023-02-17T00:19:22;101983.72;;;16.75;49.15
30302;BME280;17111;52.130;5.028;2023-02-17T00:21:58;101987.38;;;16.74;49.27
30302;BME280;17111;52.130;5.028;2023-02-17T00:24:28;101977.63;;;16.73;49.74
30302;BME280;17111;52.130;5.028;2023-02-17T00:26:55;101984.69;;;16.74;49.71
30302;BME280;17111;52.130;5.028;2023-02-17T00:29:22;101978.47;;;16.73;49.34
30302;BME280;17111;52.130;5.028;2023-02-17T00:31:48;101974.97;;;16.73;50.16
30302;BME280;17111;52.130;5.028;2023-02-17T00:34:17;101968.72;;;16.72;49.42
30302;BME280;17111;52.130;5.028;2023-02-17T00:36:44;101982.09;;;16.72;49.38
30302;BME280;17111;52.130;5.028;2023-02-17T00:39:13;101985.66;;;16.73;49.29
30302;BME280;17111;52.130;5.028;2023-02-17T00:41:40;101983.91;;;16.72;49.63
30302;BME280;17111;52.130;5.028;2023-02-17T00:44:17;101985.66;;;16.73;49.69
30302;BME280;17111;52.130;5.028;2023-02-17T00:46:44;101983.84;;;16.73;50.05
30302;BME280;17111;52.130;5.028;2023-02-17T00:49:17;101975.03;;;16.71;50.05
30302;BME280;17111;52.130;5.028;2023-02-17T00:51:45;101969.66;;;16.71;49.86
30302;BME280;17111;52.130;5.028;2023-02-17T00:54:12;101966.03;;;16.72;49.51
30302;BME280;17111;52.130;5.028;2023-02-17T00:56:39;101964.31;;;16.71;49.28
30302;BME280;17111;52.130;5.028;2023-02-17T00:59:07;101967.00;;;16.71;50.13
30302;BME280;17111;52.130;5.028;2023-02-17T01:01:34;101967.84;;;16.72;49.43
30302;BME280;17111;52.130;5.028;2023-02-17T01:04:02;101962.63;;;16.70;49.31
30302;BME280;17111;52.130;5.028;2023-02-17T01:06:34;101967.97;;;16.70;49.58
30302;BME280;17111;52.130;5.028;2023-02-17T01:09:04;101962.63;;;16.70;49.34
30302;BME280;17111;52.130;5.028;2023-02-17T01:11:32;101969.78;;;16.70;49.92
30302;BME280;17111;52.130;5.028;2023-02-17T01:14:00;101970.66;;;16.70;49.67
30302;BME280;17111;52.130;5.028;2023-02-17T01:16:33;101977.97;;;16.68;49.57
30302;BME280;17111;52.130;5.028;2023-02-17T01:19:02;101972.47;;;16.70;50.02
30302;BME280;17111;52.130;5.028;2023-02-17T01:21:29;101976.97;;;16.69;50.02
30302;BME280;17111;52.130;5.028;2023-02-17T01:23:58;101965.41;;;16.69;49.64
30302;BME280;17111;52.130;5.028;2023-02-17T01:26:26;101980.50;;;16.70;49.69
30302;BME280;17111;52.130;5.028;2023-02-17T01:28:54;101973.44;;;16.69;50.18
30302;BME280;17111;52.130;5.028;2023-02-17T01:31:21;101983.31;;;16.68;49.35
30302;BME280;17111;52.130;5.028;2023-02-17T01:33:48;101975.28;;;16.68;49.91
30302;BME280;17111;52.130;5.028;2023-02-17T01:36:17;101969.03;;;16.68;49.94
30302;BME280;17111;52.130;5.028;2023-02-17T01:38:44;101959.22;;;16.68;49.40
30302;BME280;17111;52.130;5.028;2023-02-17T01:41:12;101963.69;;;16.68;49.71
30302;BME280;17111;52.130;5.028;2023-02-17T01:43:39;101977.97;;;16.68;50.09
30302;BME280;17111;52.130;5.028;2023-02-17T01:46:06;101981.59;;;16.67;50.43
30302;BME280;17111;52.130;5.028;2023-02-17T01:48:41;101968.19;;;16.67;49.49
30302;BME280;17111;52.130;5.028;2023-02-17T01:51:22;101965.66;;;16.66;49.53
30302;BME280;17111;52.130;5.028;2023-02-17T01:53:55;101966.50;;;16.66;49.41
30302;BME280;17111;52.130;5.028;2023-02-17T01:56:25;101967.47;;;16.65;49.55
30302;BME280;17111;52.130;5.028;2023-02-17T01:59:04;101963.94;;;16.65;49.82
30302;BME280;17111;52.130;5.028;2023-02-17T02:01:31;101953.13;;;16.66;50.34
30302;BME280;17111;52.130;5.028;2023-02-17T02:03:59;101948.75;;;16.65;49.38
30302;BME280;17111;52.130;5.028;2023-02-17T02:06:29;101945.22;;;16.65;49.73
30302;BME280;17111;52.130;5.028;2023-02-17T02:09:25;101939.09;;;16.63;49.61
30302;BME280;17111;52.130;5.028;2023-02-17T02:11:50;101926.56;;;16.63;49.89
30302;BME280;17111;52.130;5.028;2023-02-17T02:14:18;101916.63;;;16.65;49.65
30302;BME280;17111;52.130;5.028;2023-02-17T02:17:03;101911.50;;;16.62;50.49
30302;BME280;17111;52.130;5.028;2023-02-17T02:25:20;101913.41;;;16.60;49.93
30302;BME280;17111;52.130;5.028;2023-02-17T02:30:57;101911.50;;;16.62;50.22
30302;BME280;17111;52.130;5.028;2023-02-17T02:33:45;101905.53;;;16.59;49.96
30302;BME280;17111;52.130;5.028;2023-02-17T02:36:38;101904.53;;;16.60;50.42
30302;BME280;17111;52.130;5.028;2023-02-17T02:39:19;101896.63;;;16.58;49.85
30302;BME280;17111;52.130;5.028;2023-02-17T02:41:50;101898.47;;;16.58;49.61
30302;BME280;17111;52.130;5.028;2023-02-17T02:44:20;101897.63;;;16.57;50.12
30302;BME280;17111;52.130;5.028;2023-02-17T02:47:05;101899.44;;;16.57;50.60
30302;BME280;17111;52.130;5.028;2023-02-17T02:49:34;101895.78;;;16.58;50.32
30302;BME280;17111;52.130;5.028;2023-02-17T02:52:14;101896.78;;;16.57;50.34
30302;BME280;17111;52.130;5.028;2023-02-17T02:54:53;101894.94;;;16.57;50.18
30302;BME280;17111;52.130;5.028;2023-02-17T03:05:50;101891.41;;;16.57;49.44
30302;BME280;17111;52.130;5.028;2023-02-17T03:08:35;101891.50;;;16.55;50.00
30302;BME280;17111;52.130;5.028;2023-02-17T03:11:04;101891.41;;;16.57;50.36
30302;BME280;17111;52.130;5.028;2023-02-17T03:13:35;101879.84;;;16.56;49.79
30302;BME280;17111;52.130;5.028;2023-02-17T03:16:05;101881.78;;;16.54;49.92
30302;BME280;17111;52.130;5.028;2023-02-17T03:18:34;101883.25;;;16.58;49.95
30302;BME280;17111;52.130;5.028;2023-02-17T03:21:13;101868.19;;;16.57;50.48
30302;BME280;17111;52.130;5.028;2023-02-17T03:23:40;101864.66;;;16.57;49.69
30302;BME280;17111;52.130;5.028;2023-02-17T03:26:07;101857.56;;;16.56;50.32
30302;BME280;17111;52.130;5.028;2023-02-17T03:28:34;101837.00;;;16.56;50.43
30302;BME280;17111;52.130;5.028;2023-02-17T03:31:00;101839.69;;;16.56;49.49
30302;BME280;17111;52.130;5.028;2023-02-17T03:33:27;101846.03;;;16.55;49.45
30302;BME280;17111;52.130;5.028;2023-02-17T03:35:53;101845.16;;;16.54;50.06
30302;BME280;17111;52.130;5.028;2023-02-17T03:38:20;101840.66;;;16.55;49.75
30302;BME280;17111;52.130;5.028;2023-02-17T03:40:46;101838.84;;;16.56;50.29
30302;BME280;17111;52.130;5.028;2023-02-17T03:43:14;101834.47;;;16.54;50.05
30302;BME280;17111;52.130;5.028;2023-02-17T03:45:43;101839.81;;;16.54;50.02
30302;BME280;17111;52.130;5.028;2023-02-17T03:48:10;101846.03;;;16.55;49.78
30302;BME280;17111;52.130;5.028;2023-02-17T03:50:36;101838.97;;;16.54;49.59
30302;BME280;17111;52.130;5.028;2023-02-17T03:53:03;101836.28;;;16.54;49.75
30302;BME280;17111;52.130;5.028;2023-02-17T03:55:30;101842.50;;;16.54;49.90
30302;BME280;17111;52.130;5.028;2023-02-17T03:57:57;101855.03;;;16.54;49.89
30302;BME280;17111;52.130;5.028;2023-02-17T04:00:23;101842.50;;;16.54;50.14
30302;BME280;17111;52.130;5.028;2023-02-17T04:02:50;101846.88;;;16.56;50.45
30302;BME280;17111;52.130;5.028;2023-02-17T04:05:16;101841.50;;;16.56;49.97
30302;BME280;17111;52.130;5.028;2023-02-17T04:07:43;101835.31;;;16.55;49.97
30302;BME280;17111;52.130;5.028;2023-02-17T04:10:10;101833.63;;;16.54;50.55
30302;BME280;17111;52.130;5.028;2023-02-17T04:12:36;101845.16;;;16.54;49.83
30302;BME280;17111;52.130;5.028;2023-02-17T04:15:03;101846.03;;;16.55;50.23
30302;BME280;17111;52.130;5.028;2023-02-17T04:17:29;101842.50;;;16.54;50.00
30302;BME280;17111;52.130;5.028;2023-02-17T04:19:56;101854.03;;;16.55;50.14
30302;BME280;17111;52.130;5.028;2023-02-17T04:22:23;101855.88;;;16.54;50.18
30302;BME280;17111;52.130;5.028;2023-02-17T04:24:49;101848.69;;;16.55;49.86
30302;BME280;17111;52.130;5.028;2023-02-17T04:27:16;101856.72;;;16.55;49.91
30302;BME280;17111;52.130;5.028;2023-02-17T04:29:42;101840.66;;;16.55;49.97
30302;BME280;17111;52.130;5.028;2023-02-17T04:32:09;101840.66;;;16.55;50.39
30302;BME280;17111;52.130;5.028;2023-02-17T04:34:35;101830.81;;;16.56;50.58
30302;BME280;17111;52.130;5.028;2023-02-17T04:37:02;101831.66;;;16.56;49.79
30302;BME280;17111;52.130;5.028;2023-02-17T04:39:29;101825.47;;;16.56;49.56
30302;BME280;17111;52.130;5.028;2023-02-17T04:41:55;101820.09;;;16.56;49.65
30302;BME280;17111;52.130;5.028;2023-02-17T04:44:22;101809.41;;;16.56;50.23
30302;BME280;17111;52.130;5.028;2023-02-17T04:46:48;101814.75;;;16.56;50.14
30302;BME280;17111;52.130;5.028;2023-02-17T04:49:15;101810.25;;;16.56;50.07
30302;BME280;17111;52.130;5.028;2023-02-17T04:51:41;101824.50;;;16.57;49.56
30302;BME280;17111;52.130;5.028;2023-02-17T04:54:08;101805.78;;;16.57;49.82
30302;BME280;17111;52.130;5.028;2023-02-17T04:56:34;101822.69;;;16.57;49.79
30302;BME280;17111;52.130;5.028;2023-02-17T04:59:01;101823.63;;;16.56;50.38
30302;BME280;17111;52.130;5.028;2023-02-17T05:01:27;101828.03;;;16.57;49.98
30302;BME280;17111;52.130;5.028;2023-02-17T05:03:54;101838.75;;;16.57;50.60
30302;BME280;17111;52.130;5.028;2023-02-17T05:06:20;101849.44;;;16.57;50.32
30302;BME280;17111;52.130;5.028;2023-02-17T05:08:47;101852.13;;;16.57;50.24
30302;BME280;17111;52.130;5.028;2023-02-17T05:11:15;101853.81;;;16.58;49.80
30302;BME280;17111;52.130;5.028;2023-02-17T05:13:42;101856.50;;;16.58;50.48
30302;BME280;17111;52.130;5.028;2023-02-17T05:16:09;101833.25;;;16.59;49.81
30302;BME280;17111;52.130;5.028;2023-02-17T05:18:35;101844.09;;;16.57;50.58
30302;BME280;17111;52.130;5.028;2023-02-17T05:21:02;101839.59;;;16.58;50.73
30302;BME280;17111;52.130;5.028;2023-02-17T05:23:28;101829.72;;;16.58;51.00
30302;BME280;17111;52.130;5.028;2023-02-17T05:25:55;101828.88;;;16.58;50.88
30302;BME280;17111;52.130;5.028;2023-02-17T05:28:21;101829.72;;;16.58;50.01
30302;BME280;17111;52.130;5.028;2023-02-17T05:30:48;101841.28;;;16.59;50.58
30302;BME280;17111;52.130;5.028;2023-02-17T05:33:15;101827.06;;;16.58;51.11
30302;BME280;17111;52.130;5.028;2023-02-17T05:35:42;101819.88;;;16.59;50.76
30302;BME280;17111;52.130;5.028;2023-02-17T05:38:08;101820.72;;;16.59;49.85
30302;BME280;17111;52.130;5.028;2023-02-17T05:40:35;101823.53;;;16.58;50.13
30302;BME280;17111;52.130;5.028;2023-02-17T05:43:01;101819.88;;;16.59;50.21
30302;BME280;17111;52.130;5.028;2023-02-17T05:45:28;101807.47;;;16.58;51.16
30302;BME280;17111;52.130;5.028;2023-02-17T05:47:54;101811.84;;;16.59;50.87
30302;BME280;17111;52.130;5.028;2023-02-17T05:50:21;101819.88;;;16.59;50.36
30302;BME280;17111;52.130;5.028;2023-02-17T05:52:47;101807.47;;;16.58;50.46
30302;BME280;17111;52.130;5.028;2023-02-17T05:55:14;101816.34;;;16.58;50.89
30302;BME280;17111;52.130;5.028;2023-02-17T05:57:41;101805.66;;;16.58;50.43
30302;BME280;17111;52.130;5.028;2023-02-17T06:00:08;101796.75;;;16.58;50.54
30302;BME280;17111;52.130;5.028;2023-02-17T06:02:34;101803.81;;;16.59;50.55
30302;BME280;17111;52.130;5.028;2023-02-17T06:05:01;101811.84;;;16.59;50.55
30302;BME280;17111;52.130;5.028;2023-02-17T06:07:27;101811.00;;;16.58;50.17
30302;BME280;17111;52.130;5.028;2023-02-17T06:09:54;101806.63;;;16.57;50.22
30302;BME280;17111;52.130;5.028;2023-02-17T06:12:20;101808.44;;;16.57;50.81
30302;BME280;17111;52.130;5.028;2023-02-17T06:14:47;101800.41;;;16.57;50.66
30302;BME280;17111;52.130;5.028;2023-02-17T06:17:14;101802.22;;;16.56;50.53
30302;BME280;17111;52.130;5.028;2023-02-17T06:19:40;101790.66;;;16.56;50.12
30302;BME280;17111;52.130;5.028;2023-02-17T06:22:07;101795.91;;;16.57;50.50
30302;BME280;17111;52.130;5.028;2023-02-17T06:24:33;101791.50;;;16.56;50.71
30302;BME280;17111;52.130;5.028;2023-02-17T06:27:00;101784.38;;;16.57;50.64
30302;BME280;17111;52.130;5.028;2023-02-17T06:29:26;101788.84;;;16.56;50.67
30302;BME280;17111;52.130;5.028;2023-02-17T06:31:53;101781.69;;;16.57;50.40
30302;BME280;17111;52.130;5.028;2023-02-17T06:34:20;101780.81;;;16.56;50.56
30302;BME280;17111;52.130;5.028;2023-02-17T06:36:46;101781.69;;;16.57;50.68
30302;BME280;17111;52.130;5.028;2023-02-17T06:39:13;101781.69;;;16.57;50.34
30302;BME280;17111;52.130;5.028;2023-02-17T06:41:40;101771.09;;;16.55;51.15
30302;BME280;17111;52.130;5.028;2023-02-17T06:44:08;101765.72;;;16.55;50.51
30302;BME280;17111;52.130;5.028;2023-02-17T06:46:34;101772.78;;;16.56;51.01
30302;BME280;17111;52.130;5.028;2023-02-17T06:49:01;101763.06;;;16.55;50.81
30302;BME280;17111;52.130;5.028;2023-02-17T06:51:27;101759.53;;;16.54;51.06
30302;BME280;17111;52.130;5.028;2023-02-17T06:53:54;101770.09;;;16.56;50.51
30302;BME280;17111;52.130;5.028;2023-02-17T06:56:21;101750.53;;;16.56;50.29
30302;BME280;17111;52.130;5.028;2023-02-17T06:58:48;101755.03;;;16.55;51.06
30302;BME280;17111;52.130;5.028;2023-02-17T07:01:24;101755.16;;;16.53;50.56
30302;BME280;17111;52.130;5.028;2023-02-17T07:03:52;101769.25;;;16.56;50.67
30302;BME280;17111;52.130;5.028;2023-02-17T07:06:19;101763.06;;;16.55;50.65
30302;BME280;17111;52.130;5.028;2023-02-17T07:08:46;101766.72;;;16.54;50.66
30302;BME280;17111;52.130;5.028;2023-02-17T07:11:14;101778.13;;;16.56;51.50
30302;BME280;17111;52.130;5.028;2023-02-17T07:13:41;101785.31;;;16.56;50.84
30302;BME280;17111;52.130;5.028;2023-02-17T07:16:09;101788.84;;;16.56;50.98
30302;BME280;17111;52.130;5.028;2023-02-17T07:18:36;101790.56;;;16.57;51.09
30302;BME280;17111;52.130;5.028;2023-02-17T07:21:08;101803.94;;;16.57;50.53
30302;BME280;17111;52.130;5.028;2023-02-17T07:23:35;101793.25;;;16.57;50.98
30302;BME280;17111;52.130;5.028;2023-02-17T07:26:08;101793.25;;;16.57;51.03
30302;BME280;17111;52.130;5.028;2023-02-17T07:28:36;101782.41;;;16.59;50.88
30302;BME280;17111;52.130;5.028;2023-02-17T07:31:14;101782.53;;;16.57;51.15
30302;BME280;17111;52.130;5.028;2023-02-17T07:33:42;101753.81;;;16.59;51.14
30302;BME280;17111;52.130;5.028;2023-02-17T07:36:11;101761.00;;;16.59;50.67
30302;BME280;17111;52.130;5.028;2023-02-17T07:38:38;101769.03;;;16.59;50.83
30302;BME280;17111;52.130;5.028;2023-02-17T07:41:11;101769.88;;;16.59;50.29
30302;BME280;17111;52.130;5.028;2023-02-17T07:43:38;101770.72;;;16.60;50.30
30302;BME280;17111;52.130;5.028;2023-02-17T07:46:05;101778.75;;;16.60;50.50
30302;BME280;17111;52.130;5.028;2023-02-17T07:48:32;101784.00;;;16.61;51.26
30302;BME280;17111;52.130;5.028;2023-02-17T07:51:25;101778.03;;;16.58;51.39
30302;BME280;17111;52.130;5.028;2023-02-17T07:53:52;101778.66;;;16.61;50.65
30302;BME280;17111;52.130;5.028;2023-02-17T07:56:20;101776.81;;;16.62;51.22
30302;BME280;17111;52.130;5.028;2023-02-17T07:58:47;101775.00;;;16.62;51.05
30302;BME280;17111;52.130;5.028;2023-02-17T08:01:19;101785.69;;;16.62;50.96
30302;BME280;17111;52.130;5.028;2023-02-17T08:03:47;101796.41;;;16.62;51.28
30302;BME280;17111;52.130;5.028;2023-02-17T08:06:19;101814.06;;;16.65;50.71
30302;BME280;17111;52.130;5.028;2023-02-17T08:08:47;101808.81;;;16.63;50.53
30302;BME280;17111;52.130;5.028;2023-02-17T08:11:33;101811.47;;;16.63;51.02
30302;BME280;17111;52.130;5.028;2023-02-17T08:14:23;101803.34;;;16.65;50.91
30302;BME280;17111;52.130;5.028;2023-02-17T08:16:50;101807.72;;;16.66;50.93
30302;BME280;17111;52.130;5.028;2023-02-17T08:19:17;101810.41;;;16.66;51.31
30302;BME280;17111;52.130;5.028;2023-02-17T08:21:43;101805.88;;;16.66;51.33
30302;BME280;17111;52.130;5.028;2023-02-17T08:24:10;101810.50;;;16.64;50.53
30302;BME280;17111;52.130;5.028;2023-02-17T08:26:38;101810.41;;;16.66;50.95
30302;BME280;17111;52.130;5.028;2023-02-17T08:29:05;101817.56;;;16.65;50.93
30302;BME280;17111;52.130;5.028;2023-02-17T08:31:33;101830.97;;;16.65;50.97
30302;BME280;17111;52.130;5.028;2023-02-17T08:34:02;101839.00;;;16.65;51.16
30302;BME280;17111;52.130;5.028;2023-02-17T08:36:30;101841.53;;;16.67;50.95
30302;BME280;17111;52.130;5.028;2023-02-17T08:38:57;101835.34;;;16.66;51.34
30302;BME280;17111;52.130;5.028;2023-02-17T08:41:29;101829.97;;;16.66;50.69
30302;BME280;17111;52.130;5.028;2023-02-17T08:43:58;101823.66;;;16.67;51.20
30302;BME280;17111;52.130;5.028;2023-02-17T08:46:26;101837.03;;;16.67;50.95
30302;BME280;17111;52.130;5.028;2023-02-17T08:48:53;101835.19;;;16.68;51.04
30302;BME280;17111;52.130;5.028;2023-02-17T08:51:22;101838.75;;;16.68;51.25
30302;BME280;17111;52.130;5.028;2023-02-17T08:53:52;101852.13;;;16.68;51.33
30302;BME280;17111;52.130;5.028;2023-02-17T08:56:21;101836.09;;;16.68;51.32
30302;BME280;17111;52.130;5.028;2023-02-17T08:58:48;101830.72;;;16.68;50.86
30302;BME280;17111;52.130;5.028;2023-02-17T09:01:15;101824.41;;;16.69;51.61
30302;BME280;17111;52.130;5.028;2023-02-17T09:03:45;101838.63;;;16.70;51.17
30302;BME280;17111;52.130;5.028;2023-02-17T09:06:12;101836.78;;;16.70;51.16
30302;BME280;17111;52.130;5.028;2023-02-17T09:08:39;101831.44;;;16.70;51.11
30302;BME280;17111;52.130;5.028;2023-02-17T09:11:07;101838.50;;;16.71;51.23
30302;BME280;17111;52.130;5.028;2023-02-17T09:13:35;101842.16;;;16.70;52.01
30302;BME280;17111;52.130;5.028;2023-02-17T09:16:02;101842.03;;;16.72;51.73
30302;BME280;17111;52.130;5.028;2023-02-17T09:18:29;101850.94;;;16.72;51.25
30302;BME280;17111;52.130;5.028;2023-02-17T09:20:55;101843.78;;;16.73;51.25
30302;BME280;17111;52.130;5.028;2023-02-17T09:23:23;101855.34;;;16.73;51.37
30302;BME280;17111;52.130;5.028;2023-02-17T09:26:00;101847.31;;;16.73;51.31
30302;BME280;17111;52.130;5.028;2023-02-17T09:28:27;101821.38;;;16.74;51.21
30302;BME280;17111;52.130;5.028;2023-02-17T09:30:53;101843.50;;;16.76;51.21
30302;BME280;17111;52.130;5.028;2023-02-17T09:33:20;101828.44;;;16.75;51.04
30302;BME280;17111;52.130;5.028;2023-02-17T09:35:47;101830.13;;;16.76;51.04
30302;BME280;17111;52.130;5.028;2023-02-17T09:38:15;101824.78;;;16.76;51.32
30302;BME280;17111;52.130;5.028;2023-02-17T09:40:47;101831.84;;;16.77;51.84
30302;BME280;17111;52.130;5.028;2023-02-17T09:43:16;101831.72;;;16.78;51.52
30302;BME280;17111;52.130;5.028;2023-02-17T09:45:51;101836.22;;;16.78;51.69
30302;BME280;17111;52.130;5.028;2023-02-17T09:48:22;101838.91;;;16.78;51.00
30302;BME280;17111;52.130;5.028;2023-02-17T09:51:11;101817.34;;;16.80;51.05
30302;BME280;17111;52.130;5.028;2023-02-17T09:56:53;101816.28;;;16.82;51.04
30302;BME280;17111;52.130;5.028;2023-02-17T09:59:53;101820.88;;;16.80;51.30
30302;BME280;17111;52.130;5.028;2023-02-17T10:02:31;101837.56;;;16.84;50.88
30302;BME280;17111;52.130;5.028;2023-02-17T10:05:02;101826.84;;;16.84;51.14
30302;BME280;17111;52.130;5.028;2023-02-17T10:08:08;101833.03;;;16.84;51.40
30302;BME280;17111;52.130;5.028;2023-02-17T10:10:47;101845.59;;;16.84;51.59
30302;BME280;17111;52.130;5.028;2023-02-17T10:13:19;101854.38;;;16.86;51.25
30302;BME280;17111;52.130;5.028;2023-02-17T10:15:49;101847.19;;;16.86;51.10
30302;BME280;17111;52.130;5.028;2023-02-17T10:19:07;101858.75;;;16.87;51.44
30302;BME280;17111;52.130;5.028;2023-02-17T10:21:18;101851.56;;;16.87;51.14
30302;BME280;17111;52.130;5.028;2023-02-17T10:23:49;101841.69;;;16.88;50.90
30302;BME280;17111;52.130;5.028;2023-02-17T10:29:11;101850.56;;;16.88;51.72
30302;BME280;17111;52.130;5.028;2023-02-17T10:31:51;101853.25;;;16.88;51.68
30302;BME280;17111;52.130;5.028;2023-02-17T10:34:37;101861.28;;;16.88;51.41
30302;BME280;17111;52.130;5.028;2023-02-17T10:37:19;101866.53;;;16.90;51.14
30302;BME280;17111;52.130;5.028;2023-02-17T10:39:55;101874.44;;;16.91;51.32
30302;BME280;17111;52.130;5.028;2023-02-17T10:42:30;101865.44;;;16.92;51.19
30302;BME280;17111;52.130;5.028;2023-02-17T10:47:34;101858.28;;;16.93;51.61
30302;BME280;17111;52.130;5.028;2023-02-17T10:50:04;101857.38;;;16.92;50.76
30302;BME280;17111;52.130;5.028;2023-02-17T10:52:37;101870.69;;;16.94;51.74
30302;BME280;17111;52.130;5.028;2023-02-17T10:55:08;101870.69;;;16.94;51.04
30302;BME280;17111;52.130;5.028;2023-02-17T10:57:54;101875.06;;;16.95;51.47
30302;BME280;17111;52.130;5.028;2023-02-17T11:00:24;101889.19;;;16.97;51.58
30302;BME280;17111;52.130;5.028;2023-02-17T11:02:52;101881.16;;;16.97;51.42
30302;BME280;17111;52.130;5.028;2023-02-17T11:05:28;101890.88;;;16.98;51.64
30302;BME280;17111;52.130;5.028;2023-02-17T11:07:59;101887.34;;;16.97;51.33
30302;BME280;17111;52.130;5.028;2023-02-17T11:10:30;101873.97;;;16.97;51.19
30302;BME280;17111;52.130;5.028;2023-02-17T11:12:58;101874.81;;;16.98;51.13
30302;BME280;17111;52.130;5.028;2023-02-17T11:15:29;101890.88;;;16.98;51.43
30302;BME280;17111;52.130;5.028;2023-02-17T11:17:59;101890.88;;;16.98;51.31
30302;BME280;17111;52.130;5.028;2023-02-17T11:20:30;101896.25;;;16.98;51.00
30302;BME280;17111;52.130;5.028;2023-02-17T11:23:03;101915.00;;;16.98;51.65
30302;BME280;17111;52.130;5.028;2023-02-17T11:25:34;101918.50;;;16.98;50.97
30302;BME280;17111;52.130;5.028;2023-02-17T11:28:11;101921.19;;;16.98;51.54
30302;BME280;17111;52.130;5.028;2023-02-17T11:30:40;101925.56;;;16.99;51.35
30302;BME280;17111;52.130;5.028;2023-02-17T11:33:15;101937.13;;;17.00;51.52
30302;BME280;17111;52.130;5.028;2023-02-17T11:36:04;101932.75;;;16.99;51.58
30302;BME280;17111;52.130;5.028;2023-02-17T11:38:41;101923.88;;;16.98;51.18
30302;BME280;17111;52.130;5.028;2023-02-17T11:41:08;101926.41;;;17.00;50.81
30302;BME280;17111;52.130;5.028;2023-02-17T11:43:37;101932.66;;;17.00;50.87
30302;BME280;17111;52.130;5.028;2023-02-17T11:46:26;101930.94;;;16.99;51.70
30302;BME280;17111;52.130;5.028;2023-02-17T11:49:34;101939.94;;;16.98;51.26
30302;BME280;17111;52.130;5.028;2023-02-17T11:57:35;101950.53;;;17.00;51.12
30302;BME280;17111;52.130;5.028;2023-02-17T12:00:21;101955.16;;;16.98;51.76
30302;BME280;17111;52.130;5.028;2023-02-17T12:05:48;101984.50;;;16.99;51.26
30302;BME280;17111;52.130;5.028;2023-02-17T12:08:24;101989.00;;;16.99;51.50
30302;BME280;17111;52.130;5.028;2023-02-17T12:16:45;101984.63;;;16.98;51.92
30302;BME280;17111;52.130;5.028;2023-02-17T12:25:36;101969.53;;;16.97;51.85
30302;BME280;17111;52.130;5.028;2023-02-17T12:31:19;101978.41;;;16.97;51.78
30302;BME280;17111;52.130;5.028;2023-02-17T12:33:53;101988.28;;;16.97;51.09
30302;BME280;17111;52.130;5.028;2023-02-17T12:36:27;101988.28;;;16.97;51.39
30302;BME280;17111;52.130;5.028;2023-02-17T12:39:08;101983.03;;;16.95;50.93
30302;BME280;17111;52.130;5.028;2023-02-17T12:42:04;101989.22;;;16.96;51.65
30302;BME280;17111;52.130;5.028;2023-02-17T12:44:33;101990.97;;;16.97;51.07
30302;BME280;17111;52.130;5.028;2023-02-17T12:47:28;102003.59;;;16.95;51.89
30302;BME280;17111;52.130;5.028;2023-02-17T12:50:15;102003.47;;;16.96;52.05
30302;BME280;17111;52.130;5.028;2023-02-17T12:52:47;102000.69;;;16.98;51.78
30302;BME280;17111;52.130;5.028;2023-02-17T12:55:20;101979.25;;;16.98;51.81
30302;BME280;17111;52.130;5.028;2023-02-17T12:58:00;101983.78;;;16.97;52.15
30302;BME280;17111;52.130;5.028;2023-02-17T13:00:37;101991.69;;;16.99;51.72
30302;BME280;17111;52.130;5.028;2023-02-17T13:03:04;101992.44;;;17.01;52.29
30302;BME280;17111;52.130;5.028;2023-02-17T13:11:07;101992.16;;;17.04;51.29
30302;BME280;17111;52.130;5.028;2023-02-17T13:13:36;101986.81;;;17.04;51.76
30302;BME280;17111;52.130;5.028;2023-02-17T13:16:04;101986.81;;;17.04;51.95
30302;BME280;17111;52.130;5.028;2023-02-17T13:18:40;101967.13;;;17.05;51.31
30302;BME280;17111;52.130;5.028;2023-02-17T13:21:26;101989.50;;;17.04;51.96
30302;BME280;17111;52.130;5.028;2023-02-17T13:26:35;101992.91;;;17.06;51.71
30302;BME280;17111;52.130;5.028;2023-02-17T13:29:32;102017.16;;;17.05;51.10
30302;BME280;17111;52.130;5.028;2023-02-17T13:32:05;102000.94;;;17.06;50.70
30302;BME280;17111;52.130;5.028;2023-02-17T13:34:41;101989.25;;;17.07;51.52
30302;BME280;17111;52.130;5.028;2023-02-17T13:37:44;101996.56;;;17.05;51.91
30302;BME280;17111;52.130;5.028;2023-02-17T13:42:46;102006.31;;;17.06;51.26
30302;BME280;17111;52.130;5.028;2023-02-17T13:45:34;101993.75;;;17.07;51.21
30302;BME280;17111;52.130;5.028;2023-02-17T13:48:29;102001.81;;;17.07;51.51
30302;BME280;17111;52.130;5.028;2023-02-17T13:51:20;101991.09;;;17.07;51.70
30302;BME280;17111;52.130;5.028;2023-02-17T13:53:49;101982.91;;;17.08;51.39
30302;BME280;17111;52.130;5.028;2023-02-17T13:56:29;101979.53;;;17.06;51.76
30302;BME280;17111;52.130;5.028;2023-02-17T13:59:15;101983.91;;;17.07;51.80
30302;BME280;17111;52.130;5.028;2023-02-17T14:01:44;101998.03;;;17.09;51.64
30302;BME280;17111;52.130;5.028;2023-02-17T14:04:22;101989.16;;;17.09;51.87
30302;BME280;17111;52.130;5.028;2023-02-17T14:06:50;101986.34;;;17.10;51.32
30302;BME280;17111;52.130;5.028;2023-02-17T14:09:27;101983.66;;;17.10;51.35
30302;BME280;17111;52.130;5.028;2023-02-17T14:11:57;101982.69;;;17.11;51.18